jordansmenu.net alexa rank chart, jordansmenu.net alexa rank daily changes

jordansmenu.net alexa rank chart, jordansmenu.net alexa rank daily changes

jordansmenu.net
Actual rank:
159 231

RANK HISTORY

Date Rank Diff
2017/12/16 159 231 -12 866
2017/12/15 172 097 -11 205
2017/12/14 183 302 -11 571
2017/12/13 194 873 -1 999
2017/12/12 196 872 -43 358
2017/12/11 240 230 -1 130
2017/12/10 241 360 -19 642
2017/12/09 261 002 -543
2017/12/08 261 545 -417
2017/12/07 261 962 +23 775
2017/12/06 238 187 +32 314
2017/12/05 205 873 +2 473
2017/12/04 203 400 +343
2017/12/03 203 057 +2 060
2017/12/02 200 997 +9 714
2017/12/01 191 283 +9 981
2017/11/30 181 302 +16 427
2017/11/29 164 875 -6 285
2017/11/28 171 160 +4 710
2017/11/27 166 450 +4 086
2017/11/26 162 364 +4 280
2017/11/25 158 084 -4 955
2017/11/24 163 039 +11 781
2017/11/23 151 258 +9 500
2017/11/22 141 758 -3 572
2017/11/21 145 330 -5 054
2017/11/20 150 384 +4 624
2017/11/19 145 760 +12 649
2017/11/18 133 111 -17
2017/11/17 133 128 +15 030
2017/11/16 118 098 +3 269
2017/11/15 114 829 +6 339
2017/11/14 108 490 +6 164
2017/11/13 102 326 +1 282
2017/11/12 101 044 +3 321
2017/11/11 97 723 +1 983
2017/11/10 95 740 +3 133
2017/11/09 92 607 +645
2017/11/08 91 962 +4 752
2017/11/07 87 210 +668
2017/11/06 86 542 -3 037
2017/11/05 89 579 +2 118
2017/11/04 87 461 +1 595
2017/11/03 85 866 -539
2017/11/02 86 405 -49
2017/11/01 86 454 +1 068
2017/10/31 85 386 -109
2017/10/30 85 495 -1 812
2017/10/29 87 307 +1 508
2017/10/28 85 799 -94
2017/10/27 85 893 -2 992
2017/10/26 88 885 -1 275
2017/10/25 90 160 +6 218
2017/10/24 83 942 -3 344
2017/10/23 87 286 -1 322
2017/10/22 88 608 +35
2017/10/21 88 573 +44
2017/10/20 88 529 -107
2017/10/19 88 636 -3 163
2017/10/18 91 799 +5 979
2017/10/17 85 820

WIDGET FOR YOUR SITE

DOMAINS WITH THE NEAREST RANK

Domain Rank
redkid.net 159 226
charbzaban.com 159 227
jasmine.github.io 159 228
licitor.com 159 229
facturaxion.com 159 230
jordansmenu.net 159 231
20i.com 159 232
uebersetzung.at 159 233
chromecleanerpro.com 159 234
spabreaks.com 159 235
ufob.edu.br 159 236

DOMAINS WITH THE NEAREST RANK BY TLD .net

Domain Rank
sonokinetic.net 159 153
nudeyoga.net 159 162
askfred.net 159 181
huarenjie.net 159 184
redkid.net 159 226
jordansmenu.net 159 231
signification-prenom.net 159 238
historyforkids.net 159 265
uma-jin.net 159 274
divxstream.net 159 280
siaedu.net 159 281